sensor_id;sensor_type;location;lat;lon;timestamp;P1;durP1;ratioP1;P2;durP2;ratioP2
53108;SDS011;39007;53.090;6.074;2023-07-13T00:01:27;12.43;;;2.60;;
53108;SDS011;39007;53.090;6.074;2023-07-13T00:03:53;10.70;;;2.80;;
53108;SDS011;39007;53.090;6.074;2023-07-13T00:06:19;12.68;;;2.50;;
53108;SDS011;39007;53.090;6.074;2023-07-13T00:08:46;11.95;;;2.60;;
53108;SDS011;39007;53.090;6.074;2023-07-13T00:11:14;9.60;;;2.40;;
53108;SDS011;39007;53.090;6.074;2023-07-13T00:13:40;8.88;;;2.28;;
53108;SDS011;39007;53.090;6.074;2023-07-13T00:16:07;8.82;;;2.20;;
53108;SDS011;39007;53.090;6.074;2023-07-13T00:18:34;8.70;;;1.98;;
53108;SDS011;39007;53.090;6.074;2023-07-13T00:21:00;8.57;;;2.00;;
53108;SDS011;39007;53.090;6.074;2023-07-13T00:23:36;11.30;;;2.28;;
53108;SDS011;39007;53.090;6.074;2023-07-13T00:26:03;7.53;;;2.03;;
53108;SDS011;39007;53.090;6.074;2023-07-13T00:28:30;8.73;;;1.92;;
53108;SDS011;39007;53.090;6.074;2023-07-13T00:30:56;10.40;;;2.30;;
53108;SDS011;39007;53.090;6.074;2023-07-13T00:33:22;9.18;;;2.03;;
53108;SDS011;39007;53.090;6.074;2023-07-13T00:35:48;9.98;;;2.45;;
53108;SDS011;39007;53.090;6.074;2023-07-13T00:38:15;9.48;;;2.53;;
53108;SDS011;39007;53.090;6.074;2023-07-13T00:40:41;11.57;;;2.55;;
53108;SDS011;39007;53.090;6.074;2023-07-13T00:43:15;9.48;;;2.60;;
53108;SDS011;39007;53.090;6.074;2023-07-13T00:48:07;7.45;;;2.15;;
53108;SDS011;39007;53.090;6.074;2023-07-13T00:50:33;8.75;;;2.30;;
53108;SDS011;39007;53.090;6.074;2023-07-13T00:52:59;10.52;;;2.58;;
53108;SDS011;39007;53.090;6.074;2023-07-13T00:55:25;8.70;;;2.47;;
53108;SDS011;39007;53.090;6.074;2023-07-13T00:57:52;7.32;;;2.03;;
53108;SDS011;39007;53.090;6.074;2023-07-13T01:00:18;8.68;;;2.33;;
53108;SDS011;39007;53.090;6.074;2023-07-13T01:02:46;8.52;;;1.92;;
53108;SDS011;39007;53.090;6.074;2023-07-13T01:05:13;6.75;;;1.83;;
53108;SDS011;39007;53.090;6.074;2023-07-13T01:07:40;6.22;;;1.55;;
53108;SDS011;39007;53.090;6.074;2023-07-13T01:10:07;7.38;;;1.60;;
53108;SDS011;39007;53.090;6.074;2023-07-13T01:12:33;6.18;;;1.65;;
53108;SDS011;39007;53.090;6.074;2023-07-13T01:15:00;5.00;;;1.60;;
53108;SDS011;39007;53.090;6.074;2023-07-13T01:17:27;5.25;;;1.45;;
53108;SDS011;39007;53.090;6.074;2023-07-13T01:19:54;6.22;;;1.40;;
53108;SDS011;39007;53.090;6.074;2023-07-13T01:22:20;6.43;;;1.60;;
53108;SDS011;39007;53.090;6.074;2023-07-13T01:24:50;5.03;;;1.50;;
53108;SDS011;39007;53.090;6.074;2023-07-13T01:27:19;6.65;;;1.77;;
53108;SDS011;39007;53.090;6.074;2023-07-13T01:29:46;4.70;;;1.20;;
53108;SDS011;39007;53.090;6.074;2023-07-13T01:32:17;4.38;;;1.70;;
53108;SDS011;39007;53.090;6.074;2023-07-13T01:34:49;5.18;;;1.50;;
53108;SDS011;39007;53.090;6.074;2023-07-13T01:37:15;5.18;;;1.50;;
53108;SDS011;39007;53.090;6.074;2023-07-13T01:39:41;6.32;;;1.40;;
53108;SDS011;39007;53.090;6.074;2023-07-13T01:42:07;5.20;;;1.60;;
53108;SDS011;39007;53.090;6.074;2023-07-13T01:44:33;5.32;;;1.52;;
53108;SDS011;39007;53.090;6.074;2023-07-13T01:47:00;6.90;;;1.80;;
53108;SDS011;39007;53.090;6.074;2023-07-13T01:49:26;10.27;;;1.90;;
53108;SDS011;39007;53.090;6.074;2023-07-13T01:51:52;7.60;;;2.13;;
53108;SDS011;39007;53.090;6.074;2023-07-13T01:54:18;5.72;;;1.60;;
53108;SDS011;39007;53.090;6.074;2023-07-13T01:56:45;6.43;;;1.77;;
53108;SDS011;39007;53.090;6.074;2023-07-13T01:59:11;8.10;;;2.00;;
53108;SDS011;39007;53.090;6.074;2023-07-13T02:01:37;7.72;;;1.90;;
53108;SDS011;39007;53.090;6.074;2023-07-13T02:04:03;8.70;;;1.98;;
53108;SDS011;39007;53.090;6.074;2023-07-13T02:06:29;6.78;;;2.10;;
53108;SDS011;39007;53.090;6.074;2023-07-13T02:08:55;8.40;;;2.17;;
53108;SDS011;39007;53.090;6.074;2023-07-13T02:11:21;9.15;;;2.03;;
53108;SDS011;39007;53.090;6.074;2023-07-13T02:13:48;6.03;;;1.75;;
53108;SDS011;39007;53.090;6.074;2023-07-13T02:16:14;6.90;;;1.90;;
53108;SDS011;39007;53.090;6.074;2023-07-13T02:18:40;7.15;;;2.30;;
53108;SDS011;39007;53.090;6.074;2023-07-13T02:21:06;8.25;;;2.10;;
53108;SDS011;39007;53.090;6.074;2023-07-13T02:23:32;8.15;;;2.72;;
53108;SDS011;39007;53.090;6.074;2023-07-13T02:25:59;8.65;;;2.60;;
53108;SDS011;39007;53.090;6.074;2023-07-13T02:28:27;8.57;;;2.63;;
53108;SDS011;39007;53.090;6.074;2023-07-13T02:30:54;10.55;;;2.40;;
53108;SDS011;39007;53.090;6.074;2023-07-13T02:33:20;9.77;;;2.60;;
53108;SDS011;39007;53.090;6.074;2023-07-13T02:35:46;8.40;;;2.75;;
53108;SDS011;39007;53.090;6.074;2023-07-13T02:38:12;9.18;;;2.50;;
53108;SDS011;39007;53.090;6.074;2023-07-13T02:40:38;8.95;;;2.60;;
53108;SDS011;39007;53.090;6.074;2023-07-13T02:43:04;9.98;;;3.55;;
53108;SDS011;39007;53.090;6.074;2023-07-13T02:45:30;12.77;;;3.22;;
53108;SDS011;39007;53.090;6.074;2023-07-13T02:47:56;10.25;;;2.60;;
53108;SDS011;39007;53.090;6.074;2023-07-13T02:50:23;11.20;;;3.08;;
53108;SDS011;39007;53.090;6.074;2023-07-13T02:52:49;14.25;;;3.58;;
53108;SDS011;39007;53.090;6.074;2023-07-13T02:55:15;11.75;;;3.25;;
53108;SDS011;39007;53.090;6.074;2023-07-13T02:57:41;15.77;;;3.33;;
53108;SDS011;39007;53.090;6.074;2023-07-13T03:00:07;15.13;;;3.38;;
53108;SDS011;39007;53.090;6.074;2023-07-13T03:02:34;15.15;;;3.92;;
53108;SDS011;39007;53.090;6.074;2023-07-13T03:05:00;18.40;;;3.83;;
53108;SDS011;39007;53.090;6.074;2023-07-13T03:07:27;14.80;;;3.72;;
53108;SDS011;39007;53.090;6.074;2023-07-13T03:09:54;16.95;;;3.75;;
53108;SDS011;39007;53.090;6.074;2023-07-13T03:12:20;18.30;;;3.92;;
53108;SDS011;39007;53.090;6.074;2023-07-13T03:14:46;13.80;;;3.65;;
53108;SDS011;39007;53.090;6.074;2023-07-13T03:17:12;15.10;;;4.07;;
53108;SDS011;39007;53.090;6.074;2023-07-13T03:19:39;16.08;;;3.80;;
53108;SDS011;39007;53.090;6.074;2023-07-13T03:22:05;17.67;;;3.80;;
53108;SDS011;39007;53.090;6.074;2023-07-13T03:24:32;22.25;;;4.53;;
53108;SDS011;39007;53.090;6.074;2023-07-13T03:26:58;20.30;;;4.85;;
53108;SDS011;39007;53.090;6.074;2023-07-13T03:29:24;15.48;;;3.90;;
53108;SDS011;39007;53.090;6.074;2023-07-13T03:31:50;17.30;;;4.35;;
53108;SDS011;39007;53.090;6.074;2023-07-13T03:34:16;21.73;;;4.32;;
53108;SDS011;39007;53.090;6.074;2023-07-13T03:36:43;14.52;;;3.72;;
53108;SDS011;39007;53.090;6.074;2023-07-13T03:39:09;18.42;;;4.20;;
53108;SDS011;39007;53.090;6.074;2023-07-13T03:41:35;18.15;;;4.40;;
53108;SDS011;39007;53.090;6.074;2023-07-13T03:44:02;19.50;;;4.05;;
53108;SDS011;39007;53.090;6.074;2023-07-13T03:46:28;18.77;;;4.22;;
53108;SDS011;39007;53.090;6.074;2023-07-13T03:48:55;19.17;;;4.03;;
53108;SDS011;39007;53.090;6.074;2023-07-13T03:51:21;17.30;;;3.67;;
53108;SDS011;39007;53.090;6.074;2023-07-13T03:53:48;22.60;;;4.25;;
53108;SDS011;39007;53.090;6.074;2023-07-13T03:56:14;17.60;;;3.85;;
53108;SDS011;39007;53.090;6.074;2023-07-13T03:58:41;18.27;;;4.32;;
53108;SDS011;39007;53.090;6.074;2023-07-13T04:01:08;20.42;;;4.38;;
53108;SDS011;39007;53.090;6.074;2023-07-13T04:03:35;14.40;;;3.78;;
53108;SDS011;39007;53.090;6.074;2023-07-13T04:06:04;18.58;;;4.30;;
53108;SDS011;39007;53.090;6.074;2023-07-13T04:08:34;18.70;;;4.03;;
53108;SDS011;39007;53.090;6.074;2023-07-13T04:11:01;17.73;;;4.20;;
53108;SDS011;39007;53.090;6.074;2023-07-13T04:13:28;19.45;;;3.72;;
53108;SDS011;39007;53.090;6.074;2023-07-13T04:15:54;16.70;;;3.88;;
53108;SDS011;39007;53.090;6.074;2023-07-13T04:18:20;18.23;;;3.78;;
53108;SDS011;39007;53.090;6.074;2023-07-13T04:20:47;17.27;;;4.50;;
53108;SDS011;39007;53.090;6.074;2023-07-13T04:23:14;17.27;;;3.75;;
53108;SDS011;39007;53.090;6.074;2023-07-13T04:25:43;16.27;;;3.85;;
53108;SDS011;39007;53.090;6.074;2023-07-13T04:28:09;12.57;;;3.85;;
53108;SDS011;39007;53.090;6.074;2023-07-13T04:30:35;17.45;;;3.55;;
53108;SDS011;39007;53.090;6.074;2023-07-13T04:33:01;15.43;;;3.20;;
53108;SDS011;39007;53.090;6.074;2023-07-13T04:35:27;12.93;;;3.72;;
53108;SDS011;39007;53.090;6.074;2023-07-13T04:37:54;15.75;;;3.10;;
53108;SDS011;39007;53.090;6.074;2023-07-13T04:40:20;15.00;;;3.25;;
53108;SDS011;39007;53.090;6.074;2023-07-13T04:42:46;15.45;;;3.05;;
53108;SDS011;39007;53.090;6.074;2023-07-13T04:45:13;13.77;;;2.95;;
53108;SDS011;39007;53.090;6.074;2023-07-13T04:47:40;16.60;;;3.40;;
53108;SDS011;39007;53.090;6.074;2023-07-13T04:50:07;13.65;;;3.25;;
53108;SDS011;39007;53.090;6.074;2023-07-13T04:52:33;17.02;;;4.15;;
53108;SDS011;39007;53.090;6.074;2023-07-13T04:55:00;14.75;;;3.88;;
53108;SDS011;39007;53.090;6.074;2023-07-13T04:57:26;11.90;;;3.13;;
53108;SDS011;39007;53.090;6.074;2023-07-13T04:59:53;15.27;;;3.53;;
53108;SDS011;39007;53.090;6.074;2023-07-13T05:02:22;13.80;;;3.25;;
53108;SDS011;39007;53.090;6.074;2023-07-13T05:04:48;15.00;;;3.42;;
53108;SDS011;39007;53.090;6.074;2023-07-13T05:07:15;12.75;;;3.25;;
53108;SDS011;39007;53.090;6.074;2023-07-13T05:09:41;12.38;;;3.05;;
53108;SDS011;39007;53.090;6.074;2023-07-13T05:12:08;9.38;;;2.85;;
53108;SDS011;39007;53.090;6.074;2023-07-13T05:14:34;13.80;;;3.30;;
53108;SDS011;39007;53.090;6.074;2023-07-13T05:17:01;11.57;;;3.15;;
53108;SDS011;39007;53.090;6.074;2023-07-13T05:19:27;15.98;;;3.47;;
53108;SDS011;39007;53.090;6.074;2023-07-13T05:21:53;14.25;;;3.17;;
53108;SDS011;39007;53.090;6.074;2023-07-13T05:24:19;14.32;;;3.38;;
53108;SDS011;39007;53.090;6.074;2023-07-13T05:26:45;12.52;;;2.97;;
53108;SDS011;39007;53.090;6.074;2023-07-13T05:29:11;15.77;;;3.28;;
53108;SDS011;39007;53.090;6.074;2023-07-13T05:31:37;17.52;;;3.33;;
53108;SDS011;39007;53.090;6.074;2023-07-13T05:34:04;10.38;;;2.90;;
53108;SDS011;39007;53.090;6.074;2023-07-13T05:36:30;11.60;;;3.00;;
53108;SDS011;39007;53.090;6.074;2023-07-13T05:38:56;13.43;;;3.38;;
53108;SDS011;39007;53.090;6.074;2023-07-13T05:41:23;11.68;;;3.05;;
53108;SDS011;39007;53.090;6.074;2023-07-13T05:43:49;11.93;;;3.15;;
53108;SDS011;39007;53.090;6.074;2023-07-13T05:46:15;15.30;;;3.53;;
53108;SDS011;39007;53.090;6.074;2023-07-13T05:48:41;11.80;;;3.22;;
53108;SDS011;39007;53.090;6.074;2023-07-13T05:51:07;14.00;;;3.00;;
53108;SDS011;39007;53.090;6.074;2023-07-13T05:53:34;15.88;;;3.40;;
53108;SDS011;39007;53.090;6.074;2023-07-13T05:56:04;15.45;;;3.35;;
53108;SDS011;39007;53.090;6.074;2023-07-13T05:58:30;14.63;;;3.22;;
53108;SDS011;39007;53.090;6.074;2023-07-13T06:01:00;11.82;;;3.05;;
53108;SDS011;39007;53.090;6.074;2023-07-13T06:03:26;11.20;;;3.10;;
53108;SDS011;39007;53.090;6.074;2023-07-13T06:05:56;12.68;;;2.90;;
53108;SDS011;39007;53.090;6.074;2023-07-13T06:08:22;13.95;;;2.88;;
53108;SDS011;39007;53.090;6.074;2023-07-13T06:10:48;12.95;;;3.25;;
53108;SDS011;39007;53.090;6.074;2023-07-13T06:13:14;15.52;;;3.00;;
53108;SDS011;39007;53.090;6.074;2023-07-13T06:15:41;11.63;;;2.90;;
53108;SDS011;39007;53.090;6.074;2023-07-13T06:18:07;12.48;;;3.42;;
53108;SDS011;39007;53.090;6.074;2023-07-13T06:20:33;14.07;;;3.55;;
53108;SDS011;39007;53.090;6.074;2023-07-13T06:23:01;12.73;;;2.85;;
53108;SDS011;39007;53.090;6.074;2023-07-13T06:25:27;15.38;;;3.72;;
53108;SDS011;39007;53.090;6.074;2023-07-13T06:27:53;12.00;;;3.10;;
53108;SDS011;39007;53.090;6.074;2023-07-13T06:30:19;12.68;;;3.10;;
53108;SDS011;39007;53.090;6.074;2023-07-13T06:32:45;12.35;;;3.00;;
53108;SDS011;39007;53.090;6.074;2023-07-13T06:35:11;12.32;;;3.10;;
53108;SDS011;39007;53.090;6.074;2023-07-13T06:37:38;13.80;;;2.97;;
53108;SDS011;39007;53.090;6.074;2023-07-13T06:40:04;13.75;;;3.00;;
53108;SDS011;39007;53.090;6.074;2023-07-13T06:42:31;16.52;;;3.60;;
53108;SDS011;39007;53.090;6.074;2023-07-13T06:44:57;14.27;;;3.10;;
53108;SDS011;39007;53.090;6.074;2023-07-13T06:47:23;10.60;;;2.72;;
53108;SDS011;39007;53.090;6.074;2023-07-13T06:49:49;11.02;;;2.80;;
53108;SDS011;39007;53.090;6.074;2023-07-13T06:52:15;12.52;;;2.92;;
53108;SDS011;39007;53.090;6.074;2023-07-13T06:54:41;11.15;;;2.85;;
53108;SDS011;39007;53.090;6.074;2023-07-13T06:57:08;12.02;;;2.60;;
53108;SDS011;39007;53.090;6.074;2023-07-13T06:59:34;11.50;;;2.50;;
53108;SDS011;39007;53.090;6.074;2023-07-13T07:02:00;12.43;;;2.70;;
53108;SDS011;39007;53.090;6.074;2023-07-13T07:04:26;12.38;;;2.42;;
53108;SDS011;39007;53.090;6.074;2023-07-13T07:06:52;14.20;;;2.80;;
53108;SDS011;39007;53.090;6.074;2023-07-13T07:09:18;11.27;;;3.03;;
53108;SDS011;39007;53.090;6.074;2023-07-13T07:11:44;12.63;;;3.00;;
53108;SDS011;39007;53.090;6.074;2023-07-13T07:14:11;11.15;;;2.97;;
53108;SDS011;39007;53.090;6.074;2023-07-13T07:16:37;10.23;;;2.72;;
53108;SDS011;39007;53.090;6.074;2023-07-13T07:19:03;13.32;;;3.03;;
53108;SDS011;39007;53.090;6.074;2023-07-13T07:21:29;11.43;;;3.17;;
53108;SDS011;39007;53.090;6.074;2023-07-13T07:23:56;11.38;;;2.83;;
53108;SDS011;39007;53.090;6.074;2023-07-13T07:26:22;10.63;;;2.60;;
53108;SDS011;39007;53.090;6.074;2023-07-13T07:28:48;12.95;;;3.00;;
53108;SDS011;39007;53.090;6.074;2023-07-13T07:31:14;11.40;;;2.67;;
53108;SDS011;39007;53.090;6.074;2023-07-13T07:33:40;14.93;;;3.00;;
53108;SDS011;39007;53.090;6.074;2023-07-13T07:36:07;10.65;;;2.40;;
53108;SDS011;39007;53.090;6.074;2023-07-13T07:38:33;9.65;;;2.60;;
53108;SDS011;39007;53.090;6.074;2023-07-13T07:41:00;13.80;;;2.75;;
53108;SDS011;39007;53.090;6.074;2023-07-13T07:43:26;9.98;;;2.85;;
53108;SDS011;39007;53.090;6.074;2023-07-13T07:45:53;8.45;;;2.20;;
53108;SDS011;39007;53.090;6.074;2023-07-13T07:48:19;9.20;;;2.30;;
53108;SDS011;39007;53.090;6.074;2023-07-13T07:50:45;8.63;;;2.38;;
53108;SDS011;39007;53.090;6.074;2023-07-13T07:53:11;8.73;;;2.85;;
53108;SDS011;39007;53.090;6.074;2023-07-13T07:55:38;8.30;;;2.30;;
53108;SDS011;39007;53.090;6.074;2023-07-13T07:58:04;10.23;;;2.38;;
53108;SDS011;39007;53.090;6.074;2023-07-13T08:00:31;8.90;;;2.63;;
53108;SDS011;39007;53.090;6.074;2023-07-13T08:02:58;9.02;;;2.83;;
53108;SDS011;39007;53.090;6.074;2023-07-13T08:05:24;10.82;;;2.50;;
53108;SDS011;39007;53.090;6.074;2023-07-13T08:07:51;11.93;;;2.85;;
53108;SDS011;39007;53.090;6.074;2023-07-13T08:10:17;10.15;;;2.40;;
53108;SDS011;39007;53.090;6.074;2023-07-13T08:12:43;7.00;;;2.35;;
53108;SDS011;39007;53.090;6.074;2023-07-13T08:15:11;9.45;;;2.85;;
53108;SDS011;39007;53.090;6.074;2023-07-13T08:17:37;10.23;;;2.60;;
53108;SDS011;39007;53.090;6.074;2023-07-13T08:20:03;12.10;;;2.90;;
53108;SDS011;39007;53.090;6.074;2023-07-13T08:22:30;7.78;;;2.33;;
53108;SDS011;39007;53.090;6.074;2023-07-13T08:24:56;8.55;;;2.10;;
53108;SDS011;39007;53.090;6.074;2023-07-13T08:27:23;5.95;;;2.10;;
53108;SDS011;39007;53.090;6.074;2023-07-13T08:29:49;9.93;;;2.35;;
53108;SDS011;39007;53.090;6.074;2023-07-13T08:32:15;8.98;;;2.55;;
53108;SDS011;39007;53.090;6.074;2023-07-13T08:34:41;7.55;;;2.15;;
53108;SDS011;39007;53.090;6.074;2023-07-13T08:37:08;10.25;;;2.42;;
53108;SDS011;39007;53.090;6.074;2023-07-13T08:39:34;6.95;;;2.42;;
53108;SDS011;39007;53.090;6.074;2023-07-13T08:42:02;8.35;;;2.60;;
53108;SDS011;39007;53.090;6.074;2023-07-13T08:47:22;8.73;;;2.40;;
53108;SDS011;39007;53.090;6.074;2023-07-13T08:49:49;7.65;;;2.53;;
53108;SDS011;39007;53.090;6.074;2023-07-13T08:54:43;7.63;;;2.40;;
53108;SDS011;39007;53.090;6.074;2023-07-13T08:57:16;5.70;;;1.85;;
53108;SDS011;39007;53.090;6.074;2023-07-13T08:59:43;6.85;;;2.20;;
53108;SDS011;39007;53.090;6.074;2023-07-13T09:02:29;5.93;;;1.98;;
53108;SDS011;39007;53.090;6.074;2023-07-13T09:05:38;5.63;;;2.17;;
53108;SDS011;39007;53.090;6.074;2023-07-13T09:08:01;7.20;;;2.13;;
53108;SDS011;39007;53.090;6.074;2023-07-13T09:10:40;7.85;;;2.22;;
53108;SDS011;39007;53.090;6.074;2023-07-13T09:13:13;6.47;;;2.13;;
53108;SDS011;39007;53.090;6.074;2023-07-13T09:15:41;6.15;;;1.98;;
53108;SDS011;39007;53.090;6.074;2023-07-13T09:18:18;6.13;;;1.90;;
53108;SDS011;39007;53.090;6.074;2023-07-13T09:20:49;7.50;;;2.00;;
53108;SDS011;39007;53.090;6.074;2023-07-13T09:23:17;6.03;;;2.13;;
53108;SDS011;39007;53.090;6.074;2023-07-13T09:25:48;9.00;;;2.10;;
53108;SDS011;39007;53.090;6.074;2023-07-13T09:28:26;5.97;;;1.70;;
53108;SDS011;39007;53.090;6.074;2023-07-13T09:33:21;4.45;;;1.63;;
53108;SDS011;39007;53.090;6.074;2023-07-13T09:35:47;5.15;;;1.83;;
53108;SDS011;39007;53.090;6.074;2023-07-13T09:38:18;5.88;;;1.88;;
53108;SDS011;39007;53.090;6.074;2023-07-13T09:41:01;3.97;;;1.50;;
53108;SDS011;39007;53.090;6.074;2023-07-13T09:43:29;5.70;;;1.60;;
53108;SDS011;39007;53.090;6.074;2023-07-13T09:45:55;3.78;;;1.50;;
53108;SDS011;39007;53.090;6.074;2023-07-13T09:48:21;5.18;;;1.50;;
53108;SDS011;39007;53.090;6.074;2023-07-13T09:50:49;5.95;;;1.52;;
53108;SDS011;39007;53.090;6.074;2023-07-13T09:53:21;6.80;;;1.85;;
53108;SDS011;39007;53.090;6.074;2023-07-13T09:55:48;8.45;;;1.70;;
53108;SDS011;39007;53.090;6.074;2023-07-13T09:58:15;5.70;;;1.70;;
53108;SDS011;39007;53.090;6.074;2023-07-13T10:00:43;5.47;;;1.73;;
53108;SDS011;39007;53.090;6.074;2023-07-13T10:03:19;7.22;;;1.50;;
53108;SDS011;39007;53.090;6.074;2023-07-13T10:05:47;7.05;;;1.95;;
53108;SDS011;39007;53.090;6.074;2023-07-13T10:08:20;5.05;;;1.73;;
53108;SDS011;39007;53.090;6.074;2023-07-13T10:10:46;6.32;;;2.20;;
53108;SDS011;39007;53.090;6.074;2023-07-13T10:13:28;10.65;;;1.98;;
53108;SDS011;39007;53.090;6.074;2023-07-13T10:15:55;5.32;;;1.60;;
53108;SDS011;39007;53.090;6.074;2023-07-13T10:18:21;5.40;;;1.70;;
53108;SDS011;39007;53.090;6.074;2023-07-13T10:20:47;4.47;;;1.70;;
53108;SDS011;39007;53.090;6.074;2023-07-13T10:23:15;4.38;;;1.67;;
53108;SDS011;39007;53.090;6.074;2023-07-13T10:25:47;5.30;;;1.30;;
53108;SDS011;39007;53.090;6.074;2023-07-13T10:28:19;4.10;;;1.50;;
53108;SDS011;39007;53.090;6.074;2023-07-13T10:30:47;6.88;;;1.75;;
53108;SDS011;39007;53.090;6.074;2023-07-13T10:33:14;6.15;;;1.80;;
53108;SDS011;39007;53.090;6.074;2023-07-13T10:35:41;4.32;;;1.65;;
53108;SDS011;39007;53.090;6.074;2023-07-13T10:38:15;8.68;;;1.85;;
53108;SDS011;39007;53.090;6.074;2023-07-13T10:40:58;5.78;;;1.60;;
53108;SDS011;39007;53.090;6.074;2023-07-13T10:43:27;7.25;;;1.90;;
53108;SDS011;39007;53.090;6.074;2023-07-13T10:45:55;8.20;;;1.95;;
53108;SDS011;39007;53.090;6.074;2023-07-13T10:48:22;6.72;;;1.63;;
53108;SDS011;39007;53.090;6.074;2023-07-13T10:50:49;7.95;;;1.90;;
53108;SDS011;39007;53.090;6.074;2023-07-13T10:53:19;6.57;;;1.90;;
53108;SDS011;39007;53.090;6.074;2023-07-13T10:58:24;6.18;;;2.08;;
53108;SDS011;39007;53.090;6.074;2023-07-13T11:03:32;9.73;;;2.25;;
53108;SDS011;39007;53.090;6.074;2023-07-13T11:06:15;6.13;;;1.70;;
53108;SDS011;39007;53.090;6.074;2023-07-13T11:14:00;5.80;;;1.80;;
53108;SDS011;39007;53.090;6.074;2023-07-13T11:21:27;8.38;;;2.15;;
53108;SDS011;39007;53.090;6.074;2023-07-13T11:31:41;8.00;;;1.98;;
53108;SDS011;39007;53.090;6.074;2023-07-13T11:34:19;6.75;;;2.10;;
53108;SDS011;39007;53.090;6.074;2023-07-13T11:36:47;8.65;;;2.38;;
53108;SDS011;39007;53.090;6.074;2023-07-13T11:39:18;5.13;;;1.83;;
53108;SDS011;39007;53.090;6.074;2023-07-13T11:41:49;6.75;;;2.08;;
53108;SDS011;39007;53.090;6.074;2023-07-13T11:44:17;6.45;;;1.92;;
53108;SDS011;39007;53.090;6.074;2023-07-13T11:46:48;4.90;;;2.00;;
53108;SDS011;39007;53.090;6.074;2023-07-13T11:49:16;5.80;;;1.70;;
53108;SDS011;39007;53.090;6.074;2023-07-13T11:51:42;7.88;;;2.10;;
53108;SDS011;39007;53.090;6.074;2023-07-13T11:54:15;8.00;;;2.13;;
53108;SDS011;39007;53.090;6.074;2023-07-13T11:56:45;7.78;;;2.10;;
53108;SDS011;39007;53.090;6.074;2023-07-13T11:59:11;6.95;;;1.95;;
53108;SDS011;39007;53.090;6.074;2023-07-13T12:01:42;4.60;;;1.60;;
53108;SDS011;39007;53.090;6.074;2023-07-13T12:04:11;5.65;;;1.60;;
53108;SDS011;39007;53.090;6.074;2023-07-13T12:06:46;5.28;;;2.00;;
53108;SDS011;39007;53.090;6.074;2023-07-13T12:09:13;6.35;;;1.80;;
53108;SDS011;39007;53.090;6.074;2023-07-13T12:11:43;5.10;;;1.63;;
53108;SDS011;39007;53.090;6.074;2023-07-13T12:14:13;6.18;;;1.90;;
53108;SDS011;39007;53.090;6.074;2023-07-13T12:16:40;8.63;;;1.92;;
53108;SDS011;39007;53.090;6.074;2023-07-13T12:19:09;6.35;;;1.90;;
53108;SDS011;39007;53.090;6.074;2023-07-13T12:21:41;7.25;;;2.20;;
53108;SDS011;39007;53.090;6.074;2023-07-13T12:24:15;8.00;;;2.03;;
53108;SDS011;39007;53.090;6.074;2023-07-13T12:26:41;7.00;;;1.95;;
53108;SDS011;39007;53.090;6.074;2023-07-13T12:29:07;8.35;;;1.83;;
53108;SDS011;39007;53.090;6.074;2023-07-13T12:31:37;6.18;;;2.20;;
53108;SDS011;39007;53.090;6.074;2023-07-13T12:34:07;6.35;;;1.80;;
53108;SDS011;39007;53.090;6.074;2023-07-13T12:36:34;5.80;;;1.60;;
53108;SDS011;39007;53.090;6.074;2023-07-13T12:39:04;7.05;;;1.85;;
53108;SDS011;39007;53.090;6.074;2023-07-13T12:41:30;7.45;;;1.73;;
53108;SDS011;39007;53.090;6.074;2023-07-13T12:43:57;7.57;;;2.08;;
53108;SDS011;39007;53.090;6.074;2023-07-13T12:46:24;6.57;;;2.03;;
53108;SDS011;39007;53.090;6.074;2023-07-13T12:48:54;7.38;;;1.85;;
53108;SDS011;39007;53.090;6.074;2023-07-13T12:51:26;6.72;;;1.73;;
53108;SDS011;39007;53.090;6.074;2023-07-13T12:53:57;6.22;;;2.10;;
53108;SDS011;39007;53.090;6.074;2023-07-13T12:56:25;6.78;;;1.85;;
53108;SDS011;39007;53.090;6.074;2023-07-13T12:58:58;6.63;;;2.20;;
53108;SDS011;39007;53.090;6.074;2023-07-13T13:01:27;6.70;;;1.95;;
53108;SDS011;39007;53.090;6.074;2023-07-13T13:03:54;8.20;;;2.00;;
53108;SDS011;39007;53.090;6.074;2023-07-13T13:06:29;7.72;;;2.45;;
53108;SDS011;39007;53.090;6.074;2023-07-13T13:08:56;5.32;;;1.70;;
53108;SDS011;39007;53.090;6.074;2023-07-13T13:11:27;5.82;;;2.08;;
53108;SDS011;39007;53.090;6.074;2023-07-13T13:13:53;7.22;;;1.83;;
53108;SDS011;39007;53.090;6.074;2023-07-13T13:16:43;7.65;;;1.80;;
53108;SDS011;39007;53.090;6.074;2023-07-13T13:19:23;7.68;;;1.73;;
53108;SDS011;39007;53.090;6.074;2023-07-13T13:21:50;12.15;;;2.25;;
53108;SDS011;39007;53.090;6.074;2023-07-13T13:24:18;5.28;;;1.80;;
53108;SDS011;39007;53.090;6.074;2023-07-13T13:26:45;6.35;;;1.73;;
53108;SDS011;39007;53.090;6.074;2023-07-13T13:29:18;5.60;;;2.03;;
53108;SDS011;39007;53.090;6.074;2023-07-13T13:31:45;7.40;;;2.00;;
53108;SDS011;39007;53.090;6.074;2023-07-13T13:34:11;4.95;;;2.05;;
53108;SDS011;39007;53.090;6.074;2023-07-13T13:36:39;5.47;;;1.80;;
53108;SDS011;39007;53.090;6.074;2023-07-13T13:39:16;5.57;;;1.65;;
53108;SDS011;39007;53.090;6.074;2023-07-13T13:41:44;6.18;;;1.77;;
53108;SDS011;39007;53.090;6.074;2023-07-13T13:44:10;6.95;;;1.85;;
53108;SDS011;39007;53.090;6.074;2023-07-13T13:46:36;5.35;;;1.70;;
53108;SDS011;39007;53.090;6.074;2023-07-13T13:49:02;7.57;;;2.10;;
53108;SDS011;39007;53.090;6.074;2023-07-13T13:51:28;5.47;;;1.50;;
53108;SDS011;39007;53.090;6.074;2023-07-13T13:53:55;5.72;;;1.80;;
53108;SDS011;39007;53.090;6.074;2023-07-13T13:56:21;5.38;;;1.67;;
53108;SDS011;39007;53.090;6.074;2023-07-13T13:58:47;6.80;;;1.85;;
53108;SDS011;39007;53.090;6.074;2023-07-13T14:01:16;6.07;;;1.95;;
53108;SDS011;39007;53.090;6.074;2023-07-13T14:03:43;7.18;;;2.08;;
53108;SDS011;39007;53.090;6.074;2023-07-13T14:06:11;11.63;;;2.53;;
53108;SDS011;39007;53.090;6.074;2023-07-13T14:08:38;6.55;;;2.00;;
53108;SDS011;39007;53.090;6.074;2023-07-13T14:11:04;6.13;;;2.20;;
53108;SDS011;39007;53.090;6.074;2023-07-13T14:13:32;8.40;;;2.17;;
53108;SDS011;39007;53.090;6.074;2023-07-13T14:15:59;9.23;;;2.45;;
53108;SDS011;39007;53.090;6.074;2023-07-13T14:18:25;10.30;;;2.33;;
53108;SDS011;39007;53.090;6.074;2023-07-13T14:20:52;6.80;;;2.25;;
53108;SDS011;39007;53.090;6.074;2023-07-13T14:23:18;7.63;;;2.08;;
53108;SDS011;39007;53.090;6.074;2023-07-13T14:25:44;6.70;;;2.13;;
53108;SDS011;39007;53.090;6.074;2023-07-13T14:30:40;6.80;;;2.00;;
53108;SDS011;39007;53.090;6.074;2023-07-13T14:33:09;7.07;;;1.85;;
53108;SDS011;39007;53.090;6.074;2023-07-13T14:35:35;9.00;;;2.25;;
53108;SDS011;39007;53.090;6.074;2023-07-13T14:38:03;7.07;;;2.00;;
53108;SDS011;39007;53.090;6.074;2023-07-13T14:40:30;6.57;;;2.60;;
53108;SDS011;39007;53.090;6.074;2023-07-13T14:42:56;9.20;;;2.28;;
53108;SDS011;39007;53.090;6.074;2023-07-13T14:45:22;8.75;;;2.15;;
53108;SDS011;39007;53.090;6.074;2023-07-13T14:47:49;8.68;;;2.03;;
53108;SDS011;39007;53.090;6.074;2023-07-13T14:50:19;10.55;;;2.13;;
53108;SDS011;39007;53.090;6.074;2023-07-13T14:52:46;6.50;;;2.08;;
53108;SDS011;39007;53.090;6.074;2023-07-13T14:55:21;6.22;;;2.40;;
53108;SDS011;39007;53.090;6.074;2023-07-13T14:57:48;12.95;;;2.50;;
53108;SDS011;39007;53.090;6.074;2023-07-13T15:00:16;7.40;;;2.28;;
53108;SDS011;39007;53.090;6.074;2023-07-13T15:02:43;6.60;;;2.17;;
53108;SDS011;39007;53.090;6.074;2023-07-13T15:05:18;7.93;;;2.10;;
53108;SDS011;39007;53.090;6.074;2023-07-13T15:07:45;6.13;;;2.17;;
53108;SDS011;39007;53.090;6.074;2023-07-13T15:10:22;6.63;;;2.10;;
53108;SDS011;39007;53.090;6.074;2023-07-13T15:12:50;8.60;;;2.30;;
53108;SDS011;39007;53.090;6.074;2023-07-13T15:15:16;9.38;;;2.50;;
53108;SDS011;39007;53.090;6.074;2023-07-13T15:17:43;6.35;;;2.10;;
53108;SDS011;39007;53.090;6.074;2023-07-13T15:22:43;6.97;;;2.50;;
53108;SDS011;39007;53.090;6.074;2023-07-13T15:25:19;8.90;;;2.22;;